createdAt,value
2022-08-12T00:02:05.561Z,100981.41
2022-08-12T00:04:54.840Z,100984.42
2022-08-12T00:07:42.679Z,100982.05
2022-08-12T00:10:29.997Z,100982.05
2022-08-12T00:13:16.820Z,100977.18
2022-08-12T00:16:05.058Z,100971.61
2022-08-12T00:18:51.759Z,100977.52
2022-08-12T00:21:40.319Z,100977.63
2022-08-12T00:24:30.197Z,100977.65
2022-08-12T00:27:17.311Z,100987.16
2022-08-12T00:30:04.027Z,100986.86
2022-08-12T00:32:54.805Z,100991.24
2022-08-12T00:35:44.707Z,100990.25
2022-08-12T00:38:32.964Z,100989.27
2022-08-12T00:41:22.522Z,100990.47
2022-08-12T00:43:56.190Z,100992.48
2022-08-12T00:46:36.899Z,100992.34
2022-08-12T00:49:05.277Z,100993.41
2022-08-12T00:51:54.745Z,100992.66
2022-08-12T00:54:25.078Z,100992.34
2022-08-12T00:56:55.247Z,100989.59
2022-08-12T00:59:23.922Z,100990.98
2022-08-12T01:02:02.076Z,100991.70
2022-08-12T01:05:01.791Z,100989.65
2022-08-12T01:07:51.164Z,100984.45
2022-08-12T01:10:37.875Z,100981.11
2022-08-12T01:13:19.193Z,100981.27
2022-08-12T01:15:54.800Z,100986.35
2022-08-12T01:18:27.611Z,100989.30
2022-08-12T01:21:04.570Z,100984.66
2022-08-12T01:23:42.546Z,100977.27
2022-08-12T01:26:17.090Z,100979.59
2022-08-12T01:28:48.705Z,100982.92
2022-08-12T01:31:20.217Z,100988.31
2022-08-12T01:33:51.448Z,100986.86
2022-08-12T01:36:26.445Z,100986.58
2022-08-12T01:38:59.472Z,100986.19
2022-08-12T01:41:32.030Z,100980.05
2022-08-12T01:44:02.170Z,100976.56
2022-08-12T01:46:39.437Z,100981.22
2022-08-12T01:49:17.911Z,100981.52
2022-08-12T01:52:20.631Z,100970.95
2022-08-12T01:54:49.556Z,100956.48
2022-08-12T01:57:59.065Z,100959.77
2022-08-12T02:00:19.368Z,100959.13
2022-08-12T02:02:51.748Z,100952.67
2022-08-12T02:06:01.964Z,100960.50
2022-08-12T02:09:17.061Z,100953.08
2022-08-12T02:12:22.957Z,100952.66
2022-08-12T02:15:25.951Z,100951.70
2022-08-12T02:18:26.479Z,100950.36
2022-08-12T02:21:19.707Z,100954.86
2022-08-12T02:23:49.515Z,100942.91
2022-08-12T02:26:20.552Z,100937.54
2022-08-12T02:28:49.352Z,100932.39
2022-08-12T02:31:17.510Z,100928.48
2022-08-12T02:33:48.038Z,100934.19
2022-08-12T02:36:17.237Z,100940.71
2022-08-12T02:38:45.729Z,100939.39
2022-08-12T02:41:17.493Z,100940.64
2022-08-12T02:43:53.643Z,100941.05
2022-08-12T02:46:31.758Z,100943.84
2022-08-12T02:49:16.198Z,100953.85
2022-08-12T02:51:46.117Z,100952.23
2022-08-12T02:54:15.008Z,100953.94
2022-08-12T02:56:50.607Z,100948.86
2022-08-12T02:59:23.236Z,100948.17
2022-08-12T03:01:57.019Z,100943.23
2022-08-12T03:04:51.240Z,100944.06
2022-08-12T03:07:49.371Z,100924.38
2022-08-12T03:10:36.647Z,100931.27
2022-08-12T03:13:08.434Z,100941.25
2022-08-12T03:15:37.259Z,100952.98
2022-08-12T03:18:26.119Z,100960.50
2022-08-12T03:21:00.373Z,100961.23
2022-08-12T03:23:31.432Z,100946.71
2022-08-12T03:26:03.339Z,100940.77
2022-08-12T03:28:53.217Z,100948.27
2022-08-12T03:31:30.393Z,100962.54
2022-08-12T03:34:03.215Z,100968.98
2022-08-12T03:36:36.553Z,100970.86
2022-08-12T03:39:37.137Z,100970.11
2022-08-12T03:42:22.909Z,100972.84
2022-08-12T03:45:23.634Z,100971.75
2022-08-12T03:48:18.909Z,100978.27
2022-08-12T03:51:12.817Z,100985.55
2022-08-12T03:54:00.259Z,100990.20
2022-08-12T03:56:47.565Z,100995.11
2022-08-12T03:59:34.486Z,100994.79
2022-08-12T04:02:02.654Z,100993.73
2022-08-12T04:04:35.244Z,100995.75
2022-08-12T04:07:10.523Z,100992.29
2022-08-12T04:09:41.085Z,100988.31
2022-08-12T04:12:32.427Z,100993.64
2022-08-12T04:15:02.530Z,100992.18
2022-08-12T04:17:31.910Z,100996.10
2022-08-12T04:20:00.620Z,100996.69
2022-08-12T04:22:30.801Z,100998.52
2022-08-12T04:25:01.878Z,101001.31
2022-08-12T04:27:32.594Z,101002.95
2022-08-12T04:30:31.073Z,100999.66
2022-08-12T04:32:53.839Z,100995.58
2022-08-12T04:35:22.154Z,100995.94
2022-08-12T04:37:57.947Z,100993.29
2022-08-12T04:40:32.765Z,100997.70
2022-08-12T04:43:01.917Z,100996.92
2022-08-12T04:45:33.271Z,100994.30
2022-08-12T04:48:02.660Z,100994.23
2022-08-12T04:50:34.756Z,100991.59
2022-08-12T04:53:09.019Z,100989.31
2022-08-12T04:55:39.159Z,100988.59
2022-08-12T04:58:09.518Z,100985.26
2022-08-12T05:00:38.375Z,100993.35
2022-08-12T05:03:07.594Z,100998.39
2022-08-12T05:05:39.601Z,100994.43
2022-08-12T05:08:24.691Z,100991.85
2022-08-12T05:10:54.142Z,100996.55
2022-08-12T05:13:37.935Z,100999.81
2022-08-12T05:16:09.329Z,100999.34
2022-08-12T05:18:39.989Z,101004.31
2022-08-12T05:21:09.519Z,101007.11
2022-08-12T05:23:39.438Z,101010.52
2022-08-12T05:26:07.690Z,101008.59
2022-08-12T05:28:35.986Z,101014.23
2022-08-12T05:31:04.718Z,101009.60
2022-08-12T05:33:41.122Z,101016.64
2022-08-12T05:36:12.911Z,101019.33
2022-08-12T05:38:57.458Z,101022.38
2022-08-12T05:41:32.381Z,101025.43
2022-08-12T05:44:06.138Z,101025.53
2022-08-12T05:46:36.450Z,101032.17
2022-08-12T05:49:05.971Z,101029.41
2022-08-12T05:51:40.705Z,101020.94
2022-08-12T05:54:16.805Z,101023.12
2022-08-12T05:56:45.896Z,101017.78
2022-08-12T05:59:14.374Z,101018.61
2022-08-12T06:02:12.548Z,101016.85
2022-08-12T06:04:31.919Z,101008.49
2022-08-12T06:07:02.077Z,101009.58
2022-08-12T06:09:49.974Z,101006.99
2022-08-12T06:12:24.005Z,101008.10
2022-08-12T06:14:51.995Z,101010.75
2022-08-12T06:17:20.022Z,101006.82
2022-08-12T06:20:27.043Z,101001.33
2022-08-12T06:22:37.653Z,100998.55
2022-08-12T06:25:06.888Z,100998.92
2022-08-12T06:28:06.809Z,101001.17
2022-08-12T06:30:39.627Z,101015.53
2022-08-12T06:33:22.491Z,101022.26
2022-08-12T06:35:57.271Z,101021.36
2022-08-12T06:38:27.900Z,101020.60
2022-08-12T06:41:17.433Z,101019.14
2022-08-12T06:44:05.889Z,101015.30
2022-08-12T06:46:37.523Z,101019.77
2022-08-12T06:49:08.785Z,101018.13
2022-08-12T06:51:36.683Z,101011.86
2022-08-12T06:54:04.801Z,101013.02
2022-08-12T06:59:21.610Z,101013.50
2022-08-12T07:01:51.241Z,101014.91
2022-08-12T07:04:37.951Z,101011.36
2022-08-12T07:07:10.043Z,101010.32
2022-08-12T07:10:04.216Z,101010.45
2022-08-12T07:12:31.815Z,101010.61
2022-08-12T07:15:02.405Z,101017.23
2022-08-12T07:17:38.033Z,101018.27
2022-08-12T07:20:24.670Z,101024.77
2022-08-12T07:22:59.879Z,101018.53
2022-08-12T07:25:37.431Z,101018.64
2022-08-12T07:28:23.671Z,101015.48
2022-08-12T07:30:53.479Z,101016.87
2022-08-12T07:33:30.658Z,101016.30
2022-08-12T07:36:02.583Z,101019.85
2022-08-12T07:38:37.458Z,101025.62
2022-08-12T07:41:44.387Z,101027.30
2022-08-12T07:44:13.962Z,101027.48
2022-08-12T07:46:43.956Z,101028.08
2022-08-12T07:49:16.535Z,101025.55
2022-08-12T07:51:45.729Z,101023.84
2022-08-12T07:54:14.822Z,101025.03
2022-08-12T07:56:43.449Z,101022.59
2022-08-12T07:59:11.991Z,101019.86
2022-08-12T08:01:40.219Z,101016.11
2022-08-12T08:04:26.949Z,101026.59
2022-08-12T08:06:55.032Z,101024.44
2022-08-12T08:09:24.426Z,101028.87
2022-08-12T08:12:18.544Z,101029.02
2022-08-12T08:14:49.859Z,101027.80
2022-08-12T08:17:19.075Z,101034.68
2022-08-12T08:20:03.946Z,101037.27
2022-08-12T08:22:50.176Z,101029.77
2022-08-12T08:25:36.500Z,101033.37
2022-08-12T08:28:07.100Z,101029.99
2022-08-12T08:30:38.622Z,101030.20
2022-08-12T08:34:01.407Z,101034.93
2022-08-12T08:36:00.478Z,101035.81
2022-08-12T08:38:32.883Z,101037.05
2022-08-12T08:42:16.226Z,101038.42
2022-08-12T08:44:13.431Z,101032.81
2022-08-12T08:46:43.957Z,101035.71
2022-08-12T08:49:13.265Z,101039.08
2022-08-12T08:51:43.183Z,101040.40
2022-08-12T08:54:13.000Z,101038.75
2022-08-12T08:56:44.868Z,101045.79
2022-08-12T08:59:14.386Z,101044.09
2022-08-12T09:01:44.391Z,101045.86
2022-08-12T09:05:07.638Z,101046.60
2022-08-12T09:07:16.950Z,101045.20
2022-08-12T09:10:02.818Z,101043.40
2022-08-12T09:15:42.732Z,101045.58
2022-08-12T09:18:26.665Z,101044.64
2022-08-12T09:23:58.642Z,101041.80
2022-08-12T09:26:38.106Z,101034.70
2022-08-12T09:30:09.630Z,101032.55
2022-08-12T09:32:29.487Z,101031.11
2022-08-12T09:34:58.235Z,101033.60
2022-08-12T09:37:28.699Z,101032.92
2022-08-12T09:41:01.433Z,101034.63
2022-08-12T09:43:25.736Z,101028.78
2022-08-12T09:46:11.497Z,101028.80
2022-08-12T09:48:44.910Z,101028.14
2022-08-12T09:51:38.164Z,101025.36
2022-08-12T09:54:33.424Z,101017.81
2022-08-12T09:58:51.179Z,101025.31
2022-08-12T10:00:15.054Z,101026.59
2022-08-12T10:02:52.542Z,101021.80
2022-08-12T10:05:22.918Z,101018.28
2022-08-12T10:08:13.534Z,101020.13
2022-08-12T10:11:05.727Z,101020.11
2022-08-12T10:13:42.449Z,101018.98
2022-08-12T10:16:38.744Z,101017.59
2022-08-12T10:19:17.652Z,101016.05
2022-08-12T10:21:45.930Z,101018.43
2022-08-12T10:24:20.216Z,101022.83
2022-08-12T10:27:07.818Z,101018.85
2022-08-12T10:30:03.473Z,101017.42
2022-08-12T10:32:45.500Z,101017.25
2022-08-12T10:35:16.082Z,101018.36
2022-08-12T10:38:37.964Z,101011.95
2022-08-12T10:40:37.858Z,101004.73
2022-08-12T10:43:24.324Z,100992.67
2022-08-12T10:45:58.279Z,100994.83
2022-08-12T10:48:34.318Z,100995.36
2022-08-12T10:52:03.939Z,100996.63
2022-08-12T10:54:00.322Z,100993.93
2022-08-12T10:56:34.882Z,100988.45
2022-08-12T10:59:05.733Z,100985.39
2022-08-12T11:04:19.273Z,100985.27
2022-08-12T11:04:43.693Z,100985.64
2022-08-12T11:08:35.973Z,100987.61
2022-08-12T11:10:06.411Z,100984.17
2022-08-12T11:12:59.664Z,100984.81
2022-08-12T11:15:33.015Z,100980.17
2022-08-12T11:18:18.452Z,100978.27
2022-08-12T11:20:48.855Z,100976.25
2022-08-12T11:23:25.788Z,100974.73
2022-08-12T11:26:07.812Z,100968.82
2022-08-12T11:28:37.604Z,100966.01
2022-08-12T11:31:14.155Z,100965.65
2022-08-12T11:34:05.621Z,100966.66
2022-08-12T11:36:32.027Z,100971.77
2022-08-12T11:39:04.291Z,100973.60
2022-08-12T11:41:34.940Z,100974.66
2022-08-12T11:44:35.062Z,100974.10
2022-08-12T11:46:54.937Z,100968.35
2022-08-12T11:49:31.626Z,100970.55
2022-08-12T11:52:02.548Z,100971.24
2022-08-12T11:54:32.077Z,100969.05
2022-08-12T11:58:01.158Z,100973.35
2022-08-12T12:02:38.934Z,100968.43
2022-08-12T12:05:07.465Z,100965.20
2022-08-12T12:08:38.545Z,100958.19
2022-08-12T12:10:28.429Z,100955.84
2022-08-12T12:12:56.431Z,100953.52
2022-08-12T12:15:37.383Z,100947.89
2022-08-12T12:18:31.241Z,100944.42
2022-08-12T12:21:03.906Z,100946.37
2022-08-12T12:23:36.317Z,100944.38
2022-08-12T12:26:07.871Z,100941.98
2022-08-12T12:28:39.783Z,100944.33
2022-08-12T12:31:15.097Z,100941.90
2022-08-12T12:33:57.769Z,100943.64
2022-08-12T12:36:29.661Z,100939.86
2022-08-12T12:39:00.060Z,100943.50
2022-08-12T12:42:41.669Z,100936.64
2022-08-12T12:44:30.284Z,100936.63
2022-08-12T12:47:26.090Z,100932.66
2022-08-12T12:49:53.885Z,100931.25
2022-08-12T12:52:26.132Z,100938.20
2022-08-12T12:54:58.921Z,100940.39
2022-08-12T12:57:59.195Z,100934.08
2022-08-12T13:00:18.956Z,100925.69
2022-08-12T13:02:58.182Z,100926.64
2022-08-12T13:05:42.121Z,100924.75
2022-08-12T13:08:28.335Z,100920.86
2022-08-12T13:11:05.685Z,100917.16
2022-08-12T13:14:08.101Z,100917.98
2022-08-12T13:16:26.876Z,100914.38
2022-08-12T13:18:56.981Z,100903.20
2022-08-12T13:21:33.072Z,100904.13
2022-08-12T13:24:07.582Z,100898.70
2022-08-12T13:26:40.636Z,100895.92
2022-08-12T13:29:11.130Z,100895.77
2022-08-12T13:31:46.356Z,100890.70
2022-08-12T13:34:34.859Z,100888.73
2022-08-12T13:37:08.999Z,100880.91
2022-08-12T13:39:39.519Z,100880.73
2022-08-12T13:42:14.275Z,100877.17
2022-08-12T13:44:44.010Z,100879.20
2022-08-12T13:47:20.087Z,100881.05
2022-08-12T13:49:55.016Z,100884.36
2022-08-12T13:52:25.733Z,100890.50
2022-08-12T13:54:56.324Z,100894.15
2022-08-12T13:57:44.784Z,100890.05
2022-08-12T14:00:16.668Z,100878.69
2022-08-12T14:02:44.877Z,100874.71
2022-08-12T14:05:31.316Z,100876.41
2022-08-12T14:08:07.854Z,100876.45
2022-08-12T14:10:52.723Z,100876.69
2022-08-12T14:14:05.731Z,100877.31
2022-08-12T14:16:38.184Z,100877.98
2022-08-12T14:19:21.816Z,100876.66
2022-08-12T14:22:00.610Z,100878.20
2022-08-12T14:24:41.076Z,100882.41
2022-08-12T14:27:12.640Z,100876.73
2022-08-12T14:30:05.767Z,100875.01
2022-08-12T14:32:36.002Z,100871.23
2022-08-12T14:35:09.353Z,100871.33
2022-08-12T14:37:57.785Z,100872.02
2022-08-12T14:40:35.473Z,100873.45
2022-08-12T14:43:06.138Z,100878.20
2022-08-12T14:45:45.373Z,100877.25
2022-08-12T14:48:24.198Z,100876.46
2022-08-12T14:51:09.588Z,100872.10
2022-08-12T14:54:55.908Z,100872.46
2022-08-12T14:59:57.094Z,100873.95
2022-08-12T15:02:28.913Z,100878.20
2022-08-12T15:05:03.804Z,100878.48
2022-08-12T15:07:33.383Z,100878.43
2022-08-12T15:10:31.742Z,100870.52
2022-08-12T15:13:07.361Z,100867.39
2022-08-12T15:15:43.908Z,100865.48
2022-08-12T15:18:20.836Z,100865.78
2022-08-12T15:20:54.782Z,100865.38
2022-08-12T15:23:54.845Z,100860.81
2022-08-12T15:26:28.596Z,100869.62
2022-08-12T15:28:57.903Z,100870.84
2022-08-12T15:31:28.310Z,100875.75
2022-08-12T15:34:14.225Z,100872.19
2022-08-12T15:36:55.162Z,100862.42
2022-08-12T15:39:23.867Z,100856.09
2022-08-12T15:41:56.002Z,100860.13
2022-08-12T15:44:38.232Z,100864.17
2022-08-12T15:47:10.786Z,100871.26
2022-08-12T15:49:54.644Z,100873.06
2022-08-12T15:52:29.003Z,100872.71
2022-08-12T15:55:06.072Z,100873.45
2022-08-12T15:57:46.971Z,100874.60
2022-08-12T16:00:32.809Z,100879.29
2022-08-12T16:03:05.598Z,100876.98
2022-08-12T16:06:16.975Z,100882.75
2022-08-12T16:08:30.141Z,100882.73
2022-08-12T16:10:58.323Z,100886.46
2022-08-12T16:13:34.879Z,100917.70
2022-08-12T16:16:22.666Z,100939.68
2022-08-12T16:22:58.534Z,100902.98
2022-08-12T16:26:02.628Z,100884.39
2022-08-12T16:28:28.128Z,100866.29
2022-08-12T16:30:56.541Z,100857.45
2022-08-12T16:33:59.894Z,100854.53
2022-08-12T16:36:25.865Z,100855.60
2022-08-12T16:38:54.122Z,100858.00
2022-08-12T16:41:22.859Z,100853.73
2022-08-12T16:43:53.541Z,100852.70
2022-08-12T16:46:33.541Z,100856.11
2022-08-12T16:49:08.530Z,100860.40
2022-08-12T16:51:45.907Z,100857.17
2022-08-12T16:54:18.777Z,100854.65
2022-08-12T16:56:54.640Z,100851.26
2022-08-12T16:59:25.822Z,100858.52
2022-08-12T17:01:54.481Z,100861.45
2022-08-12T17:04:24.428Z,100851.05
2022-08-12T17:06:53.126Z,100842.14
2022-08-12T17:09:22.142Z,100839.96
2022-08-12T17:11:50.524Z,100844.45
2022-08-12T17:14:20.241Z,100838.67
2022-08-12T17:16:55.605Z,100839.08
2022-08-12T17:20:30.316Z,100835.22
2022-08-12T17:22:16.852Z,100837.36
2022-08-12T17:24:55.539Z,100832.09
2022-08-12T17:27:30.924Z,100832.55
2022-08-12T17:30:00.682Z,100829.04
2022-08-12T17:32:35.242Z,100821.08
2022-08-12T17:35:30.223Z,100818.27
2022-08-12T17:38:14.125Z,100809.17
2022-08-12T17:40:48.572Z,100805.45
2022-08-12T17:43:57.627Z,100802.36
2022-08-12T17:46:12.554Z,100800.48
2022-08-12T17:48:54.926Z,100799.42
2022-08-12T17:51:25.258Z,100793.70
2022-08-12T17:54:10.937Z,100793.15
2022-08-12T17:56:43.098Z,100789.39
2022-08-12T17:59:12.410Z,100787.79
2022-08-12T18:01:46.219Z,100783.05
2022-08-12T18:04:21.888Z,100784.83
2022-08-12T18:06:52.848Z,100785.35
2022-08-12T18:09:24.445Z,100789.17
2022-08-12T18:12:24.689Z,100785.09
2022-08-12T18:14:58.521Z,100781.45
2022-08-12T18:17:30.640Z,100782.95
2022-08-12T18:20:07.430Z,100782.35
2022-08-12T18:22:36.635Z,100779.80
2022-08-12T18:26:12.352Z,100775.74
2022-08-12T18:28:16.824Z,100772.36
2022-08-12T18:30:52.943Z,100775.89
2022-08-12T18:33:28.242Z,100774.59
2022-08-12T18:35:56.701Z,100772.15
2022-08-12T18:38:27.138Z,100771.35
2022-08-12T18:41:21.461Z,100770.48
2022-08-12T18:43:59.893Z,100774.89
2022-08-12T18:46:37.383Z,100776.86
2022-08-12T18:49:17.968Z,100777.98
2022-08-12T18:51:55.372Z,100776.77
2022-08-12T18:54:36.045Z,100771.42
2022-08-12T18:57:19.975Z,100771.51
2022-08-12T19:00:06.587Z,100769.33
2022-08-12T19:02:40.926Z,100770.17
2022-08-12T19:05:12.246Z,100773.81
2022-08-12T19:07:49.702Z,100773.33
2022-08-12T19:10:27.106Z,100769.42
2022-08-12T19:13:23.554Z,100763.64
2022-08-12T19:15:58.035Z,100766.83
2022-08-12T19:18:30.134Z,100772.65
2022-08-12T19:21:11.982Z,100771.66
2022-08-12T19:24:05.224Z,100776.81
2022-08-12T19:26:34.932Z,100775.80
2022-08-12T19:29:08.413Z,100777.51
2022-08-12T19:31:58.131Z,100772.48
2022-08-12T19:37:27.177Z,100770.39
2022-08-12T19:40:09.549Z,100771.95
2022-08-12T19:43:01.064Z,100769.17
2022-08-12T19:45:42.429Z,100766.45
2022-08-12T19:48:23.408Z,100765.67
2022-08-12T19:50:53.757Z,100771.18
2022-08-12T19:53:24.423Z,100774.05
2022-08-12T19:55:55.188Z,100773.21
2022-08-12T19:58:24.868Z,100776.33
2022-08-12T20:00:54.557Z,100777.21
2022-08-12T20:03:38.381Z,100775.38
2022-08-12T20:06:21.547Z,100775.74
2022-08-12T20:08:55.851Z,100778.05
2022-08-12T20:12:12.660Z,100776.64
2022-08-12T20:14:19.720Z,100771.19
2022-08-12T20:16:57.638Z,100773.14
2022-08-12T20:20:01.725Z,100773.21
2022-08-12T20:22:29.926Z,100770.55
2022-08-12T20:25:07.521Z,100767.14
2022-08-12T20:28:02.491Z,100767.66
2022-08-12T20:30:37.269Z,100766.05
2022-08-12T20:33:18.696Z,100768.34
2022-08-12T20:36:13.812Z,100770.23
2022-08-12T20:38:40.138Z,100764.16
2022-08-12T20:41:25.185Z,100770.58
2022-08-12T20:43:56.071Z,100771.91
2022-08-12T20:46:33.845Z,100773.88
2022-08-12T20:49:17.105Z,100768.53
2022-08-12T20:51:55.197Z,100769.20
2022-08-12T20:54:32.630Z,100768.54
2022-08-12T20:57:08.716Z,100768.75
2022-08-12T20:59:47.888Z,100767.14
2022-08-12T21:02:24.700Z,100762.52
2022-08-12T21:06:09.853Z,100759.96
2022-08-12T21:08:19.240Z,100758.17
2022-08-12T21:10:59.192Z,100756.42
2022-08-12T21:13:27.600Z,100759.05
2022-08-12T21:16:01.440Z,100757.05
2022-08-12T21:18:31.816Z,100759.74
2022-08-12T21:20:59.973Z,100761.02
2022-08-12T21:23:30.767Z,100759.28
2022-08-12T21:26:11.296Z,100756.90
2022-08-12T21:28:58.293Z,100755.70
2022-08-12T21:32:35.965Z,100753.45
2022-08-12T21:34:30.288Z,100754.20
2022-08-12T21:37:26.961Z,100753.76
2022-08-12T21:39:56.336Z,100757.45
2022-08-12T21:42:27.711Z,100764.17
2022-08-12T21:45:46.319Z,100783.93
2022-08-12T21:47:46.443Z,100794.91
2022-08-12T21:50:18.605Z,100784.90
2022-08-12T21:52:49.171Z,100772.51
2022-08-12T21:55:20.205Z,100780.95
2022-08-12T21:57:53.502Z,100773.67
2022-08-12T22:00:32.493Z,100789.13
2022-08-12T22:04:02.230Z,100794.48
2022-08-12T22:06:30.409Z,100795.58
2022-08-12T22:09:07.775Z,100794.30
2022-08-12T22:11:42.264Z,100785.66
2022-08-12T22:14:24.348Z,100779.16
2022-08-12T22:16:55.839Z,100773.20
2022-08-12T22:19:24.003Z,100767.30
2022-08-12T22:21:58.767Z,100765.34
2022-08-12T22:24:33.644Z,100758.64
2022-08-12T22:27:22.819Z,100741.77
2022-08-12T22:30:17.041Z,100732.83
2022-08-12T22:32:50.231Z,100733.63
2022-08-12T22:35:56.608Z,100720.16
2022-08-12T22:38:28.928Z,100712.84
2022-08-12T22:41:03.817Z,100710.77
2022-08-12T22:44:00.872Z,100706.77
2022-08-12T22:46:53.503Z,100698.52
2022-08-12T22:49:36.835Z,100698.11
2022-08-12T22:52:18.209Z,100700.27
2022-08-12T22:55:02.704Z,100694.49
2022-08-12T22:57:53.184Z,100694.45
2022-08-12T23:00:24.035Z,100688.02
2022-08-12T23:03:02.678Z,100689.92
2022-08-12T23:05:56.845Z,100691.10
2022-08-12T23:08:29.857Z,100693.27
2022-08-12T23:11:04.695Z,100691.27
2022-08-12T23:13:56.252Z,100683.05
2022-08-12T23:16:31.212Z,100685.89
2022-08-12T23:19:10.588Z,100691.77
2022-08-12T23:22:05.357Z,100691.80
2022-08-12T23:24:56.301Z,100689.30
2022-08-12T23:27:51.861Z,100687.21
2022-08-12T23:30:35.137Z,100683.80
2022-08-12T23:33:13.189Z,100677.36
2022-08-12T23:35:58.974Z,100673.92
2022-08-12T23:38:34.877Z,100667.30
2022-08-12T23:41:05.898Z,100661.20
2022-08-12T23:43:40.957Z,100661.54
2022-08-12T23:46:19.092Z,100658.86
2022-08-12T23:48:50.454Z,100654.34
2022-08-12T23:51:25.476Z,100649.48
2022-08-12T23:54:00.222Z,100647.82
2022-08-12T23:56:34.150Z,100652.09
2022-08-12T23:59:07.242Z,100661.74
